createdAt,value
2017-11-16T00:00:29.437Z,98.73
2017-11-16T00:02:56.994Z,90.30
2017-11-16T00:05:24.520Z,69.43
2017-11-16T00:07:52.111Z,71.00
2017-11-16T00:10:19.644Z,70.17
2017-11-16T00:12:47.183Z,60.63
2017-11-16T00:15:15.149Z,78.20
2017-11-16T00:17:42.674Z,83.93
2017-11-16T00:20:10.203Z,82.20
2017-11-16T00:22:38.163Z,79.57
2017-11-16T00:25:05.707Z,73.80
2017-11-16T00:27:33.225Z,79.07
2017-11-16T00:30:00.814Z,73.73
2017-11-16T00:32:28.332Z,79.77
2017-11-16T00:34:55.854Z,85.63
2017-11-16T00:37:23.903Z,83.10
2017-11-16T00:39:51.412Z,84.63
2017-11-16T00:42:18.943Z,84.93
2017-11-16T00:44:46.608Z,89.27
2017-11-16T00:47:14.143Z,79.17
2017-11-16T00:49:41.671Z,69.03
2017-11-16T00:52:09.226Z,77.67
2017-11-16T00:54:36.759Z,82.40
2017-11-16T00:57:04.489Z,75.70
2017-11-16T00:59:32.046Z,69.20
2017-11-16T01:01:59.580Z,79.33
2017-11-16T01:04:27.247Z,92.87
2017-11-16T01:06:54.769Z,106.97
2017-11-16T01:09:22.291Z,123.77
2017-11-16T01:11:50.033Z,126.63
2017-11-16T01:14:17.577Z,118.80
2017-11-16T01:16:45.115Z,111.70
2017-11-16T01:19:13.035Z,133.90
2017-11-16T01:21:40.576Z,130.00
2017-11-16T01:24:08.115Z,142.07
2017-11-16T01:26:35.702Z,111.87
2017-11-16T01:29:03.233Z,134.77
2017-11-16T01:31:30.767Z,138.43
2017-11-16T01:33:58.802Z,201.77
2017-11-16T01:36:26.334Z,127.90
2017-11-16T01:38:53.888Z,287.40
2017-11-16T01:41:21.456Z,168.80
2017-11-16T01:43:49.010Z,256.10
2017-11-16T01:46:16.567Z,297.83
2017-11-16T01:48:44.094Z,178.57
2017-11-16T01:51:11.675Z,277.07
2017-11-16T01:53:39.235Z,132.30
2017-11-16T01:56:06.790Z,135.80
2017-11-16T01:58:34.399Z,120.50
2017-11-16T02:01:01.959Z,169.50
2017-11-16T02:03:29.509Z,133.43
2017-11-16T02:05:57.326Z,127.70
2017-11-16T02:08:24.867Z,162.33
2017-11-16T02:10:52.426Z,97.53
2017-11-16T02:13:20.034Z,130.40
2017-11-16T02:15:47.575Z,117.83
2017-11-16T02:18:15.119Z,93.90
2017-11-16T02:20:42.885Z,120.33
2017-11-16T02:23:10.440Z,93.17
2017-11-16T02:25:38.006Z,110.10
2017-11-16T02:28:05.620Z,124.00
2017-11-16T02:30:33.186Z,135.67
2017-11-16T02:33:00.740Z,123.13
2017-11-16T02:35:28.739Z,124.97
2017-11-16T02:37:56.311Z,122.90
2017-11-16T02:40:23.888Z,135.97
2017-11-16T02:42:51.496Z,125.83
2017-11-16T02:45:19.052Z,105.40
2017-11-16T02:47:46.616Z,94.50
2017-11-16T02:50:14.394Z,120.27
2017-11-16T02:52:41.948Z,95.00
2017-11-16T02:55:09.515Z,103.60
2017-11-16T02:57:37.147Z,100.30
2017-11-16T03:00:04.691Z,121.70
2017-11-16T03:02:32.266Z,115.67
2017-11-16T03:04:59.837Z,121.60
2017-11-16T03:07:27.380Z,103.60
2017-11-16T03:09:55.163Z,110.63
2017-11-16T03:12:22.712Z,130.57
2017-11-16T03:14:50.266Z,120.77
2017-11-16T03:17:17.839Z,131.33
2017-11-16T03:19:45.384Z,135.90
2017-11-16T03:22:12.987Z,143.70
2017-11-16T03:24:40.551Z,146.63
2017-11-16T03:27:08.120Z,138.70
2017-11-16T03:29:35.853Z,159.27
2017-11-16T03:32:03.406Z,126.80
2017-11-16T03:34:30.925Z,124.07
2017-11-16T03:36:58.536Z,143.33
2017-11-16T03:39:26.063Z,129.53
2017-11-16T03:41:53.625Z,147.53
2017-11-16T03:44:21.309Z,155.97
2017-11-16T03:46:48.841Z,163.43
2017-11-16T03:49:16.378Z,218.90
2017-11-16T03:51:44.322Z,171.67
2017-11-16T03:54:11.851Z,154.87
2017-11-16T03:56:39.400Z,142.37
2017-11-16T03:59:07.151Z,334.60
2017-11-16T04:01:34.692Z,150.10
2017-11-16T04:04:02.237Z,149.87
2017-11-16T04:06:29.962Z,184.63
2017-11-16T04:08:57.495Z,171.23
2017-11-16T04:11:25.046Z,166.27
2017-11-16T04:13:52.606Z,184.83
2017-11-16T04:16:20.140Z,162.73
2017-11-16T04:18:47.834Z,132.13
2017-11-16T04:21:15.431Z,157.30
2017-11-16T04:23:42.987Z,126.27
2017-11-16T04:26:10.750Z,207.33
2017-11-16T04:28:38.269Z,161.53
2017-11-16T04:31:05.817Z,112.97
2017-11-16T04:33:33.576Z,115.43
2017-11-16T04:36:01.098Z,98.53
2017-11-16T04:38:28.637Z,80.70
2017-11-16T04:40:56.693Z,82.43
2017-11-16T04:43:24.228Z,115.10
2017-11-16T04:45:51.766Z,133.93
2017-11-16T04:48:19.368Z,130.97
2017-11-16T04:50:46.904Z,103.77
2017-11-16T04:53:14.444Z,94.37
2017-11-16T04:55:42.021Z,78.73
2017-11-16T04:58:09.545Z,94.70
2017-11-16T05:00:37.077Z,94.43
2017-11-16T05:03:04.700Z,93.37
2017-11-16T05:05:32.243Z,106.33
2017-11-16T05:08:00.077Z,121.63
2017-11-16T05:10:27.671Z,117.70
2017-11-16T05:12:55.244Z,103.80
2017-11-16T05:15:22.766Z,94.13
2017-11-16T05:17:50.292Z,80.97
2017-11-16T05:20:17.971Z,86.63
2017-11-16T05:22:45.517Z,81.60
2017-11-16T05:25:13.067Z,73.40
2017-11-16T05:27:40.639Z,81.67
2017-11-16T05:30:08.206Z,64.10
2017-11-16T05:32:35.721Z,73.57
2017-11-16T05:35:03.497Z,75.40
2017-11-16T05:37:31.038Z,63.33
2017-11-16T05:39:58.561Z,66.13
2017-11-16T05:42:26.666Z,73.73
2017-11-16T05:44:54.189Z,76.67
2017-11-16T05:47:21.704Z,65.20
2017-11-16T05:49:49.256Z,73.40
2017-11-16T05:52:16.862Z,75.73
2017-11-16T05:54:44.432Z,73.07
2017-11-16T05:57:11.948Z,76.10
2017-11-16T05:59:39.746Z,77.37
2017-11-16T06:02:07.290Z,65.90
2017-11-16T06:04:34.836Z,70.33
2017-11-16T06:07:02.428Z,74.67
2017-11-16T06:09:29.962Z,77.20
2017-11-16T06:11:57.481Z,68.63
2017-11-16T06:14:25.079Z,60.77
2017-11-16T06:16:52.613Z,72.53
2017-11-16T06:19:20.166Z,61.50
2017-11-16T06:21:47.717Z,64.10
2017-11-16T06:24:15.494Z,67.03
2017-11-16T06:26:43.024Z,58.67
2017-11-16T06:29:10.572Z,64.30
2017-11-16T06:31:38.237Z,71.03
2017-11-16T06:34:05.763Z,68.67
2017-11-16T06:36:33.285Z,64.17
2017-11-16T06:39:00.830Z,54.60
2017-11-16T06:41:28.357Z,65.43
2017-11-16T06:43:55.934Z,60.43
2017-11-16T06:46:23.585Z,57.47
2017-11-16T06:48:51.106Z,59.07
2017-11-16T06:51:18.762Z,54.67
2017-11-16T06:53:46.287Z,53.60
2017-11-16T06:56:13.802Z,70.57
2017-11-16T06:58:41.341Z,56.43
2017-11-16T07:01:08.894Z,70.17
2017-11-16T07:03:36.418Z,59.70
2017-11-16T07:06:03.942Z,65.47
2017-11-16T07:08:31.514Z,60.33
2017-11-16T07:10:59.033Z,62.57
2017-11-16T07:13:26.554Z,67.60
2017-11-16T07:15:54.098Z,53.30
2017-11-16T07:18:21.613Z,66.90
2017-11-16T07:20:49.156Z,80.97
2017-11-16T07:23:16.690Z,68.37
2017-11-16T07:25:44.234Z,66.87
2017-11-16T07:28:11.746Z,64.20
2017-11-16T07:30:39.742Z,64.13
2017-11-16T07:33:07.290Z,76.37
2017-11-16T07:35:34.809Z,76.97
2017-11-16T07:38:02.354Z,82.53
2017-11-16T07:40:29.980Z,62.80
2017-11-16T07:42:57.505Z,66.53
2017-11-16T07:45:25.039Z,68.60
2017-11-16T07:47:52.842Z,59.53
2017-11-16T07:50:20.411Z,66.17
2017-11-16T07:52:47.961Z,67.97
2017-11-16T07:55:15.530Z,65.07
2017-11-16T07:57:43.072Z,60.87
2017-11-16T08:00:10.590Z,72.10
2017-11-16T08:02:38.256Z,69.47
2017-11-16T08:05:05.794Z,75.47
2017-11-16T08:07:33.317Z,76.03
2017-11-16T08:10:00.863Z,68.70
2017-11-16T08:12:28.387Z,78.63
2017-11-16T08:14:55.994Z,68.60
2017-11-16T08:17:23.514Z,72.07
2017-11-16T08:19:51.050Z,65.13
2017-11-16T08:22:18.598Z,61.17
2017-11-16T08:24:46.257Z,54.43
2017-11-16T08:27:13.780Z,61.90
2017-11-16T08:29:41.301Z,53.90
2017-11-16T08:32:08.878Z,53.53
2017-11-16T08:34:36.397Z,51.00
2017-11-16T08:37:03.939Z,49.90
2017-11-16T08:39:31.500Z,45.50
2017-11-16T08:41:59.086Z,43.60
2017-11-16T08:44:26.633Z,37.70
2017-11-16T08:46:54.168Z,39.87
2017-11-16T08:49:21.974Z,39.27
2017-11-16T08:51:49.546Z,36.67
2017-11-16T08:54:17.108Z,34.70
2017-11-16T08:56:45.015Z,40.33
2017-11-16T08:59:12.557Z,34.43
2017-11-16T09:01:40.130Z,39.00
2017-11-16T09:04:07.697Z,34.73
2017-11-16T09:06:35.238Z,31.10
2017-11-16T09:09:02.861Z,38.23
2017-11-16T09:11:30.392Z,29.00
2017-11-16T09:13:58.708Z,33.30
2017-11-16T09:16:27.032Z,33.60
2017-11-16T09:18:54.588Z,38.63
2017-11-16T09:21:22.149Z,34.50
2017-11-16T09:23:49.730Z,30.40
2017-11-16T09:26:17.278Z,32.13
2017-11-16T09:28:44.838Z,31.90
2017-11-16T09:31:12.575Z,35.63
2017-11-16T09:33:40.131Z,34.67
2017-11-16T09:36:07.682Z,39.93
2017-11-16T09:38:35.389Z,35.70
2017-11-16T09:41:02.928Z,32.60
2017-11-16T09:43:30.454Z,28.60
2017-11-16T09:45:58.355Z,30.77
2017-11-16T09:48:25.906Z,30.57
2017-11-16T09:50:53.453Z,37.83
2017-11-16T09:53:21.138Z,39.80
2017-11-16T09:55:48.657Z,40.13
2017-11-16T09:58:16.181Z,30.20
2017-11-16T10:00:43.774Z,35.53
2017-11-16T10:03:11.320Z,42.13
2017-11-16T10:05:38.899Z,36.13
2017-11-16T10:08:06.422Z,35.30
2017-11-16T10:10:33.994Z,35.43
2017-11-16T10:13:01.585Z,34.33
2017-11-16T10:15:29.124Z,37.57
2017-11-16T10:17:56.658Z,39.40
2017-11-16T10:20:24.334Z,38.83
2017-11-16T10:22:51.863Z,43.57
2017-11-16T10:25:19.478Z,43.67
2017-11-16T10:27:47.142Z,41.13
2017-11-16T10:30:14.743Z,39.90
2017-11-16T10:32:42.262Z,49.53
2017-11-16T10:35:09.865Z,46.67
2017-11-16T10:37:37.396Z,44.03
2017-11-16T10:40:04.938Z,45.53
2017-11-16T10:42:32.546Z,47.23
2017-11-16T10:45:00.065Z,48.67
2017-11-16T10:47:27.603Z,45.60
2017-11-16T10:49:55.164Z,48.07
2017-11-16T10:52:23.202Z,50.17
2017-11-16T10:54:50.722Z,44.90
2017-11-16T10:57:18.254Z,44.37
2017-11-16T10:59:45.909Z,54.63
2017-11-16T11:02:13.450Z,60.13
2017-11-16T11:04:40.978Z,54.63
2017-11-16T11:07:08.519Z,52.03
2017-11-16T11:09:36.465Z,54.50
2017-11-16T11:12:04.003Z,61.07
2017-11-16T11:14:31.534Z,68.83
2017-11-16T11:16:59.393Z,47.33
2017-11-16T11:19:26.916Z,54.13
2017-11-16T11:21:54.443Z,58.97
2017-11-16T11:24:22.003Z,56.63
2017-11-16T11:26:49.666Z,52.50
2017-11-16T11:29:17.204Z,57.57
2017-11-16T11:31:44.722Z,63.10
2017-11-16T11:34:12.293Z,65.97
2017-11-16T11:36:39.811Z,60.10
2017-11-16T11:39:07.336Z,52.90
2017-11-16T11:41:34.991Z,60.37
2017-11-16T11:44:02.505Z,72.57
2017-11-16T11:46:30.030Z,63.03
2017-11-16T11:48:57.622Z,68.83
2017-11-16T11:51:25.147Z,55.70
2017-11-16T11:53:52.809Z,62.03
2017-11-16T11:56:20.506Z,53.87
2017-11-16T11:58:48.030Z,55.87
2017-11-16T12:01:15.557Z,50.20
2017-11-16T12:03:43.101Z,58.20
2017-11-16T12:06:10.678Z,55.30
2017-11-16T12:08:38.207Z,56.40
2017-11-16T12:11:05.726Z,57.03
2017-11-16T12:13:33.313Z,56.13
2017-11-16T12:16:00.842Z,52.90
2017-11-16T12:18:28.365Z,45.10
2017-11-16T12:20:55.941Z,60.70
2017-11-16T12:23:23.458Z,47.20
2017-11-16T12:25:50.989Z,49.37
2017-11-16T12:28:18.753Z,51.70
2017-11-16T12:30:46.450Z,49.23
2017-11-16T12:33:13.995Z,54.63
2017-11-16T12:35:41.882Z,59.00
2017-11-16T12:38:09.424Z,63.03
2017-11-16T12:40:36.958Z,56.00
2017-11-16T12:43:04.642Z,51.03
2017-11-16T12:45:32.178Z,56.13
2017-11-16T12:47:59.728Z,45.77
2017-11-16T12:50:27.430Z,52.90
2017-11-16T12:52:54.995Z,49.60
2017-11-16T12:55:22.575Z,53.40
2017-11-16T12:57:50.158Z,45.90
2017-11-16T13:00:17.683Z,44.37
2017-11-16T13:02:45.212Z,43.87
2017-11-16T13:05:13.108Z,42.93
2017-11-16T13:07:40.627Z,41.53
2017-11-16T13:10:08.151Z,49.00
2017-11-16T13:12:35.716Z,47.20
2017-11-16T13:15:03.297Z,48.63
2017-11-16T13:17:30.810Z,48.63
2017-11-16T13:19:58.336Z,44.63
2017-11-16T13:22:25.910Z,46.17
2017-11-16T13:24:53.425Z,46.07
2017-11-16T13:27:20.950Z,47.53
2017-11-16T13:29:48.906Z,44.10
2017-11-16T13:32:16.431Z,46.30
2017-11-16T13:34:43.965Z,49.30
2017-11-16T13:37:11.550Z,53.90
2017-11-16T13:39:39.071Z,56.57
2017-11-16T13:42:06.587Z,61.53
2017-11-16T13:44:34.175Z,55.87
2017-11-16T13:47:01.693Z,56.60
2017-11-16T13:49:29.248Z,51.50
2017-11-16T13:51:56.828Z,58.37
2017-11-16T13:54:24.359Z,48.37
2017-11-16T13:56:51.985Z,57.90
2017-11-16T13:59:19.582Z,58.90
2017-11-16T14:01:47.114Z,58.40
2017-11-16T14:04:14.647Z,54.37
2017-11-16T14:06:42.211Z,59.57
2017-11-16T14:09:09.734Z,55.13
2017-11-16T14:11:37.599Z,58.33
2017-11-16T14:14:06.038Z,56.17
2017-11-16T14:16:33.569Z,63.93
2017-11-16T14:19:01.132Z,56.60
2017-11-16T14:21:28.663Z,60.07
2017-11-16T14:23:56.229Z,57.17
2017-11-16T14:26:23.866Z,63.73
2017-11-16T14:28:51.402Z,61.07
2017-11-16T14:31:19.357Z,65.13
2017-11-16T14:33:46.899Z,61.60
2017-11-16T14:36:14.433Z,65.60
2017-11-16T14:38:42.407Z,62.93
2017-11-16T14:41:09.943Z,71.07
2017-11-16T14:43:37.469Z,66.57
2017-11-16T14:46:05.579Z,64.60
2017-11-16T14:48:33.107Z,67.83
2017-11-16T14:51:00.641Z,61.33
2017-11-16T14:53:28.319Z,71.60
2017-11-16T14:55:55.841Z,84.93
2017-11-16T14:58:23.449Z,83.63
2017-11-16T15:00:51.059Z,73.47
2017-11-16T15:03:18.577Z,70.87
2017-11-16T15:05:46.096Z,68.10
2017-11-16T15:08:13.665Z,70.50
2017-11-16T15:10:41.185Z,73.80
2017-11-16T15:13:08.705Z,70.13
2017-11-16T15:15:36.691Z,73.87
2017-11-16T15:18:04.214Z,76.73
2017-11-16T15:20:31.728Z,69.80
2017-11-16T15:22:59.440Z,72.17
2017-11-16T15:25:26.974Z,74.07
2017-11-16T15:27:54.493Z,91.73
2017-11-16T15:30:22.038Z,72.73
2017-11-16T15:32:50.008Z,88.87
2017-11-16T15:35:17.538Z,83.30
2017-11-16T15:37:45.068Z,84.23
2017-11-16T15:40:12.718Z,87.90
2017-11-16T15:42:40.234Z,73.93
2017-11-16T15:45:07.766Z,80.57
2017-11-16T15:47:35.767Z,90.60
2017-11-16T15:50:03.316Z,78.10
2017-11-16T15:52:30.844Z,73.83
2017-11-16T15:54:58.427Z,59.50
2017-11-16T15:57:25.950Z,62.60
2017-11-16T15:59:53.461Z,65.20
2017-11-16T16:02:21.034Z,55.77
2017-11-16T16:04:48.572Z,56.13
2017-11-16T16:07:16.108Z,64.13
2017-11-16T16:09:43.706Z,61.70
2017-11-16T16:12:11.263Z,54.53
2017-11-16T16:14:38.790Z,61.27
2017-11-16T16:17:06.396Z,66.60
2017-11-16T16:19:33.923Z,63.23
2017-11-16T16:22:01.455Z,63.63
2017-11-16T16:24:29.242Z,67.07
2017-11-16T16:26:56.794Z,70.37
2017-11-16T16:29:24.345Z,66.77
2017-11-16T16:31:51.915Z,69.63
2017-11-16T16:34:19.456Z,64.47
2017-11-16T16:36:46.979Z,75.10
2017-11-16T16:39:14.694Z,68.93
2017-11-16T16:41:42.224Z,83.17
2017-11-16T16:44:09.757Z,73.30
2017-11-16T16:46:37.307Z,77.43
2017-11-16T16:49:04.851Z,96.50
2017-11-16T16:51:32.411Z,83.57
2017-11-16T16:53:59.940Z,84.83
2017-11-16T16:56:27.539Z,94.53
2017-11-16T16:58:55.129Z,100.17
2017-11-16T17:01:22.667Z,127.03
2017-11-16T17:03:50.414Z,108.43
2017-11-16T17:06:17.934Z,116.33
2017-11-16T17:08:45.455Z,92.27
2017-11-16T17:11:13.238Z,138.27
2017-11-16T17:13:40.762Z,155.43
2017-11-16T17:16:08.286Z,107.37
2017-11-16T17:18:35.836Z,111.13
2017-11-16T17:21:03.439Z,112.27
2017-11-16T17:23:30.974Z,127.70
2017-11-16T17:25:58.554Z,111.73
2017-11-16T17:28:26.159Z,139.83
2017-11-16T17:30:53.714Z,160.20
2017-11-16T17:33:21.248Z,140.40
2017-11-16T17:35:48.798Z,137.23
2017-11-16T17:38:16.327Z,144.73
2017-11-16T17:40:44.009Z,170.20
2017-11-16T17:43:11.535Z,135.67
2017-11-16T17:45:39.085Z,137.27
2017-11-16T17:48:06.688Z,117.00
2017-11-16T17:50:34.236Z,120.93
2017-11-16T17:55:36.505Z,137.27
2017-11-16T17:58:04.059Z,117.23
2017-11-16T18:00:31.597Z,163.10
2017-11-16T18:02:59.182Z,122.67
2017-11-16T18:05:26.715Z,122.37
2017-11-16T18:07:54.242Z,123.87
2017-11-16T18:10:21.839Z,123.80
2017-11-16T18:12:49.391Z,157.83
2017-11-16T18:15:16.941Z,138.57
2017-11-16T18:17:44.484Z,146.90
2017-11-16T18:20:12.163Z,145.63
2017-11-16T18:22:39.734Z,147.13
2017-11-16T18:25:07.267Z,158.73
2017-11-16T18:27:34.877Z,135.03
2017-11-16T18:30:02.406Z,168.47
2017-11-16T18:32:29.950Z,146.00
2017-11-16T18:34:57.635Z,149.30
2017-11-16T18:37:25.169Z,161.73
2017-11-16T18:39:52.695Z,180.40
2017-11-16T18:42:20.282Z,153.40
2017-11-16T18:44:47.833Z,176.10
2017-11-16T18:47:15.471Z,161.73
2017-11-16T18:49:43.033Z,166.07
2017-11-16T18:52:10.549Z,180.63
2017-11-16T18:54:38.144Z,169.07
2017-11-16T18:57:05.681Z,188.57
2017-11-16T18:59:33.298Z,184.20
2017-11-16T19:02:00.874Z,263.07
2017-11-16T19:04:28.389Z,165.03
2017-11-16T19:06:55.919Z,162.43
2017-11-16T19:09:23.907Z,171.10
2017-11-16T19:11:51.434Z,157.67
2017-11-16T19:14:18.970Z,168.63
2017-11-16T19:16:47.022Z,163.30
2017-11-16T19:19:14.555Z,181.73
2017-11-16T19:21:42.077Z,160.07
2017-11-16T19:24:09.725Z,168.43
2017-11-16T19:26:37.263Z,188.33
2017-11-16T19:29:04.794Z,196.13
2017-11-16T19:31:32.352Z,173.80
2017-11-16T19:33:59.925Z,170.17
2017-11-16T19:36:27.454Z,150.20
2017-11-16T19:38:54.979Z,173.10
2017-11-16T19:41:22.526Z,163.10
2017-11-16T19:43:50.055Z,187.90
2017-11-16T19:46:17.917Z,189.23
2017-11-16T19:48:45.466Z,169.73
2017-11-16T19:51:12.986Z,204.97
2017-11-16T19:53:40.544Z,191.20
2017-11-16T19:56:08.081Z,191.63
2017-11-16T19:58:35.658Z,192.50
2017-11-16T20:01:03.198Z,176.70
2017-11-16T20:03:30.791Z,190.63
2017-11-16T20:05:58.328Z,188.33
2017-11-16T20:08:25.849Z,169.20
2017-11-16T20:10:53.395Z,161.33
2017-11-16T20:13:20.925Z,177.67
2017-11-16T20:15:48.503Z,180.67
2017-11-16T20:18:16.030Z,163.27
2017-11-16T20:20:43.562Z,178.23
2017-11-16T20:23:11.229Z,143.30
2017-11-16T20:25:38.756Z,149.50
2017-11-16T20:28:06.288Z,177.27
2017-11-16T20:30:33.837Z,166.23
2017-11-16T20:33:01.361Z,179.60
2017-11-16T20:35:29.261Z,165.53
2017-11-16T20:37:56.797Z,149.87
2017-11-16T20:40:26.260Z,154.20
2017-11-16T20:46:10.442Z,156.13
2017-11-16T20:51:59.852Z,157.10
2017-11-16T20:54:29.922Z,165.07
2017-11-16T20:56:57.458Z,155.20
2017-11-16T20:59:25.453Z,159.03
2017-11-16T21:01:52.988Z,163.20
2017-11-16T21:04:20.517Z,162.13
2017-11-16T21:06:48.069Z,167.93
2017-11-16T21:09:15.726Z,170.57
2017-11-16T21:11:43.262Z,164.80
2017-11-16T21:14:10.800Z,167.13
2017-11-16T21:16:38.473Z,169.37
2017-11-16T21:19:06.017Z,180.87
2017-11-16T21:21:33.558Z,142.87
2017-11-16T21:24:01.512Z,115.50
2017-11-16T21:26:29.033Z,92.07
2017-11-16T21:28:56.557Z,52.47
2017-11-16T21:31:24.524Z,58.90
2017-11-16T21:33:52.062Z,42.73
2017-11-16T21:36:19.615Z,36.27
2017-11-16T21:38:47.206Z,39.50
2017-11-16T21:41:15.753Z,36.17
2017-11-16T21:43:43.310Z,53.43
2017-11-16T21:46:10.889Z,40.83
2017-11-16T21:48:38.432Z,36.73
2017-11-16T21:51:05.960Z,48.93
2017-11-16T21:53:33.513Z,40.27
2017-11-16T21:56:01.029Z,35.43
2017-11-16T21:58:28.958Z,46.67
2017-11-16T22:00:56.477Z,40.73
2017-11-16T22:03:24.002Z,39.87
2017-11-16T22:05:51.599Z,40.83
2017-11-16T22:08:19.126Z,42.87
2017-11-16T22:10:46.646Z,33.90
2017-11-16T22:13:14.185Z,44.43
2017-11-16T22:15:41.718Z,33.13
2017-11-16T22:18:09.266Z,37.83
2017-11-16T22:20:36.795Z,31.00
2017-11-16T22:23:04.353Z,31.33
2017-11-16T22:25:31.895Z,29.57
2017-11-16T22:28:00.331Z,31.23
2017-11-16T22:30:27.858Z,29.47
2017-11-16T22:32:55.370Z,30.07
2017-11-16T22:35:22.961Z,22.60
2017-11-16T22:37:50.481Z,28.40
2017-11-16T22:40:17.998Z,15.83
2017-11-16T22:42:45.558Z,26.53
2017-11-16T22:45:13.084Z,23.40
2017-11-16T22:47:40.728Z,22.27
2017-11-16T22:50:08.247Z,21.67
2017-11-16T22:52:35.803Z,15.93
2017-11-16T22:55:03.354Z,25.17
2017-11-16T22:57:30.873Z,29.83
2017-11-16T22:59:58.583Z,36.13
2017-11-16T23:02:26.102Z,22.43
2017-11-16T23:04:53.625Z,25.27
2017-11-16T23:07:21.227Z,31.67
2017-11-16T23:09:48.765Z,21.23
2017-11-16T23:12:16.290Z,42.23
2017-11-16T23:14:43.909Z,26.83
2017-11-16T23:17:11.451Z,41.83
2017-11-16T23:19:39.486Z,43.80
2017-11-16T23:22:07.020Z,30.50
2017-11-16T23:24:34.546Z,34.67
2017-11-16T23:27:02.487Z,36.20
2017-11-16T23:29:30.005Z,20.83
2017-11-16T23:31:57.521Z,24.03
2017-11-16T23:34:25.170Z,26.97
2017-11-16T23:36:52.708Z,22.80
2017-11-16T23:39:20.242Z,22.57
2017-11-16T23:41:47.833Z,23.27
2017-11-16T23:44:15.360Z,29.13
2017-11-16T23:46:42.888Z,28.50
2017-11-16T23:49:10.439Z,30.57
2017-11-16T23:51:37.962Z,26.13
2017-11-16T23:54:05.635Z,29.93
2017-11-16T23:56:33.161Z,40.40
2017-11-16T23:59:00.692Z,34.77
